RYR7SV LMML-LDZA
Flight info
| Callsign | RYR7SV |
|---|---|
| Flight time | 1h 39m |
| Altitude | 38000 |
| Route | GZO P623 OLLEK DCT ARFOL DCT ROMSU DCT XOLTA/N0437F390 DCT SIRMI/N0435F380 DCT RUDIK |
| Aircraft | A320/M-SDE3FGHIRWY/LB1 |
Departure
| Time | 2026-04-27 15:22 |
|---|---|
| Airport | Malta International Airport (LMML) |
Arrival
| Time | 2026-04-27 17:02 |
|---|---|
| Airport | Zagreb Franjo Tuđman International Airport (LDZA) |
| Time | Latitude | Longitude | Altitude | Speed | Heading |
|---|---|---|---|---|---|
| 2026-04-27 14:28 | 35.85554 | 14.48349 | 264 ft | 0 kts | 2° |
| 2026-04-27 15:09 | 35.85553 | 14.48349 | 264 ft | 1 kts | 2° |
| 2026-04-27 15:09 | 35.85539 | 14.48348 | 265 ft | 3 kts | 3° |
| 2026-04-27 15:09 | 35.85519 | 14.48347 | 265 ft | 3 kts | 1° |
| 2026-04-27 15:10 | 35.85499 | 14.48348 | 266 ft | 3 kts | 345° |
| 2026-04-27 15:10 | 35.85485 | 14.48355 | 266 ft | 1 kts | 315° |
| 2026-04-27 15:10 | 35.85484 | 14.48356 | 266 ft | 1 kts | 314° |
| 2026-04-27 15:17 | 35.85489 | 14.48350 | 266 ft | 4 kts | 314° |
| 2026-04-27 15:17 | 35.85522 | 14.48308 | 266 ft | 10 kts | 314° |
| 2026-04-27 15:18 | 35.85591 | 14.48226 | 265 ft | 16 kts | 326° |
| 2026-04-27 15:18 | 35.85660 | 14.48151 | 263 ft | 15 kts | 272° |
| 2026-04-27 15:18 | 35.85660 | 14.48024 | 266 ft | 15 kts | 279° |
| 2026-04-27 15:18 | 35.85667 | 14.47951 | 268 ft | 0 kts | 230° |
| 2026-04-27 15:21 | 35.85658 | 14.47940 | 296 ft | 5 kts | 226° |
| 2026-04-27 15:21 | 35.85597 | 14.47946 | 270 ft | 16 kts | 130° |
| 2026-04-27 15:22 | 35.85430 | 14.48158 | 268 ft | 67 kts | 136° |
| 2026-04-27 15:22 | 35.84939 | 14.48758 | 264 ft | 127 kts | 135° |
| 2026-04-27 15:22 | 35.84218 | 14.49616 | 481 ft | 150 kts | 136° |
| 2026-04-27 15:22 | 35.83480 | 14.50502 | 1202 ft | 147 kts | 136° |
| 2026-04-27 15:23 | 35.82713 | 14.51338 | 1687 ft | 154 kts | 147° |
| 2026-04-27 15:23 | 35.81721 | 14.52003 | 2013 ft | 171 kts | 158° |
| 2026-04-27 15:23 | 35.80519 | 14.52400 | 2391 ft | 188 kts | 174° |
| 2026-04-27 15:23 | 35.79155 | 14.52352 | 2788 ft | 206 kts | 190° |
| 2026-04-27 15:24 | 35.77733 | 14.51760 | 3097 ft | 231 kts | 210° |
| 2026-04-27 15:24 | 35.76419 | 14.50448 | 3520 ft | 255 kts | 231° |
| 2026-04-27 15:24 | 35.75472 | 14.48565 | 4373 ft | 261 kts | 242° |
| 2026-04-27 15:24 | 35.74570 | 14.46616 | 5355 ft | 263 kts | 241° |
| 2026-04-27 15:25 | 35.73635 | 14.44668 | 6305 ft | 267 kts | 241° |
| 2026-04-27 15:25 | 35.72693 | 14.42720 | 7217 ft | 269 kts | 246° |
| 2026-04-27 15:25 | 35.72171 | 14.40520 | 8098 ft | 269 kts | 266° |
| 2026-04-27 15:25 | 35.72327 | 14.38225 | 8992 ft | 271 kts | 286° |
| 2026-04-27 15:26 | 35.73129 | 14.36121 | 9867 ft | 275 kts | 304° |
| 2026-04-27 15:26 | 35.74483 | 14.34431 | 10693 ft | 280 kts | 322° |
| 2026-04-27 15:26 | 35.76230 | 14.33334 | 11448 ft | 289 kts | 334° |
| 2026-04-27 15:26 | 35.78176 | 14.32386 | 11723 ft | 312 kts | 336° |
| 2026-04-27 15:27 | 35.80266 | 14.31448 | 12235 ft | 323 kts | 337° |
| 2026-04-27 15:27 | 35.82392 | 14.30512 | 12979 ft | 327 kts | 337° |
| 2026-04-27 15:27 | 35.84542 | 14.29554 | 13771 ft | 329 kts | 336° |
| 2026-04-27 15:27 | 35.86690 | 14.28578 | 14472 ft | 331 kts | 336° |
| 2026-04-27 15:28 | 35.88863 | 14.27572 | 15155 ft | 334 kts | 336° |
| 2026-04-27 15:28 | 35.91045 | 14.26546 | 15796 ft | 337 kts | 335° |
| 2026-04-27 15:28 | 35.93246 | 14.25502 | 16421 ft | 341 kts | 335° |
| 2026-04-27 15:28 | 35.95472 | 14.24444 | 17084 ft | 344 kts | 335° |
| 2026-04-27 15:29 | 35.97721 | 14.23377 | 17736 ft | 348 kts | 335° |
| 2026-04-27 15:29 | 36.00015 | 14.22371 | 18383 ft | 354 kts | 342° |
| 2026-04-27 15:29 | 36.02482 | 14.21970 | 18936 ft | 364 kts | 356° |
| 2026-04-27 15:29 | 36.05027 | 14.22365 | 19515 ft | 375 kts | 10° |
| 2026-04-27 15:30 | 36.07474 | 14.23600 | 20105 ft | 387 kts | 26° |
| 2026-04-27 15:30 | 36.09751 | 14.25436 | 20693 ft | 392 kts | 29° |
| 2026-04-27 15:30 | 36.12036 | 14.27318 | 21256 ft | 396 kts | 29° |
| 2026-04-27 15:30 | 36.14343 | 14.29215 | 21829 ft | 399 kts | 29° |
| 2026-04-27 15:31 | 36.16638 | 14.31100 | 22404 ft | 402 kts | 29° |
| 2026-04-27 15:31 | 36.18977 | 14.33020 | 22964 ft | 405 kts | 29° |
| 2026-04-27 15:31 | 36.21335 | 14.34959 | 23520 ft | 409 kts | 29° |
| 2026-04-27 15:31 | 36.23714 | 14.36919 | 24004 ft | 412 kts | 29° |
| 2026-04-27 15:32 | 36.26108 | 14.38894 | 24459 ft | 415 kts | 29° |
| 2026-04-27 15:32 | 36.28523 | 14.40885 | 24906 ft | 418 kts | 29° |
| 2026-04-27 15:32 | 36.30956 | 14.42890 | 25358 ft | 421 kts | 29° |
| 2026-04-27 15:32 | 36.33408 | 14.44912 | 25789 ft | 424 kts | 29° |
| 2026-04-27 15:33 | 36.35874 | 14.46950 | 26226 ft | 427 kts | 29° |
| 2026-04-27 15:33 | 36.38342 | 14.48989 | 26676 ft | 429 kts | 29° |
| 2026-04-27 15:33 | 36.40833 | 14.51049 | 27101 ft | 431 kts | 29° |
| 2026-04-27 15:33 | 36.43340 | 14.53125 | 27508 ft | 434 kts | 29° |
| 2026-04-27 15:34 | 36.45863 | 14.55217 | 27907 ft | 437 kts | 29° |
| 2026-04-27 15:34 | 36.48444 | 14.57212 | 28297 ft | 436 kts | 22° |
| 2026-04-27 15:34 | 36.51218 | 14.58695 | 28687 ft | 433 kts | 13° |
| 2026-04-27 15:34 | 36.54120 | 14.59615 | 29072 ft | 430 kts | 5° |
| 2026-04-27 15:35 | 36.57075 | 14.60275 | 29458 ft | 433 kts | 5° |
| 2026-04-27 15:35 | 36.60048 | 14.60951 | 29874 ft | 435 kts | 5° |
| 2026-04-27 15:35 | 36.63035 | 14.61638 | 30252 ft | 438 kts | 5° |
| 2026-04-27 15:35 | 36.66042 | 14.62334 | 30583 ft | 440 kts | 5° |
| 2026-04-27 15:36 | 36.69056 | 14.63035 | 30918 ft | 442 kts | 5° |
| 2026-04-27 15:36 | 36.72100 | 14.63743 | 31254 ft | 444 kts | 5° |
| 2026-04-27 15:36 | 36.75146 | 14.64449 | 31583 ft | 446 kts | 5° |
| 2026-04-27 15:36 | 36.78192 | 14.65153 | 31983 ft | 446 kts | 5° |
| 2026-04-27 15:37 | 36.81240 | 14.65858 | 32476 ft | 444 kts | 5° |
| 2026-04-27 15:37 | 36.84268 | 14.66561 | 32986 ft | 441 kts | 5° |
| 2026-04-27 15:37 | 36.87284 | 14.67255 | 33474 ft | 440 kts | 5° |
| 2026-04-27 15:37 | 36.90285 | 14.67938 | 33978 ft | 438 kts | 5° |
| 2026-04-27 15:38 | 36.93283 | 14.68613 | 34415 ft | 437 kts | 5° |
| 2026-04-27 15:38 | 36.96270 | 14.69282 | 34783 ft | 436 kts | 5° |
| 2026-04-27 15:38 | 36.99265 | 14.69953 | 35129 ft | 436 kts | 5° |
| 2026-04-27 15:38 | 37.02248 | 14.70627 | 35467 ft | 437 kts | 4° |
| 2026-04-27 15:39 | 37.05236 | 14.71306 | 35828 ft | 437 kts | 5° |
| 2026-04-27 15:39 | 37.08228 | 14.71989 | 36170 ft | 437 kts | 5° |
| 2026-04-27 15:39 | 37.11215 | 14.72676 | 36483 ft | 436 kts | 5° |
| 2026-04-27 15:39 | 37.14199 | 14.73363 | 36781 ft | 437 kts | 5° |
| 2026-04-27 15:40 | 37.17184 | 14.74049 | 37107 ft | 436 kts | 5° |
| 2026-04-27 15:40 | 37.20175 | 14.74733 | 37418 ft | 436 kts | 4° |
| 2026-04-27 15:40 | 37.23160 | 14.75413 | 37714 ft | 436 kts | 4° |
| 2026-04-27 15:40 | 37.26146 | 14.76053 | 37977 ft | 435 kts | 3° |
| 2026-04-27 15:41 | 37.32126 | 14.77085 | 38063 ft | 435 kts | 1° |
| 2026-04-27 15:41 | 37.38129 | 14.78002 | 38064 ft | 434 kts | 1° |
| 2026-04-27 15:42 | 37.44128 | 14.78965 | 38061 ft | 435 kts | 2° |
| 2026-04-27 15:42 | 37.50125 | 14.79975 | 38067 ft | 435 kts | 2° |
| 2026-04-27 15:43 | 37.56118 | 14.80998 | 38063 ft | 435 kts | 2° |
| 2026-04-27 15:43 | 37.62119 | 14.82023 | 38066 ft | 435 kts | 2° |
| 2026-04-27 15:44 | 37.68118 | 14.83042 | 38075 ft | 435 kts | 2° |
| 2026-04-27 15:44 | 37.74132 | 14.84059 | 38104 ft | 436 kts | 2° |
| 2026-04-27 15:45 | 37.80146 | 14.85081 | 38086 ft | 436 kts | 2° |
| 2026-04-27 15:45 | 37.86169 | 14.86115 | 38088 ft | 437 kts | 2° |
| 2026-04-27 15:46 | 37.92194 | 14.87146 | 38086 ft | 437 kts | 2° |
| 2026-04-27 15:46 | 37.98193 | 14.88169 | 38099 ft | 438 kts | 3° |
| 2026-04-27 15:47 | 38.04283 | 14.89213 | 38102 ft | 438 kts | 3° |
| 2026-04-27 15:47 | 38.10288 | 14.90248 | 38112 ft | 439 kts | 3° |
| 2026-04-27 15:48 | 38.16345 | 14.91283 | 38113 ft | 439 kts | 3° |
| 2026-04-27 15:49 | 38.25424 | 14.92839 | 38124 ft | 438 kts | 3° |
| 2026-04-27 15:49 | 38.31468 | 14.93882 | 38116 ft | 438 kts | 3° |
| 2026-04-27 15:50 | 38.37509 | 14.94928 | 38111 ft | 437 kts | 3° |
| 2026-04-27 15:50 | 38.43538 | 14.95978 | 38126 ft | 437 kts | 4° |
| 2026-04-27 15:51 | 38.49569 | 14.97029 | 38122 ft | 437 kts | 4° |
| 2026-04-27 15:51 | 38.55593 | 14.98075 | 38117 ft | 436 kts | 4° |
| 2026-04-27 15:52 | 38.61609 | 14.99120 | 38128 ft | 436 kts | 4° |
| 2026-04-27 15:52 | 38.67619 | 15.00165 | 38122 ft | 436 kts | 4° |
| 2026-04-27 15:53 | 38.73638 | 15.01217 | 38119 ft | 436 kts | 4° |
| 2026-04-27 15:53 | 38.79616 | 15.02264 | 38120 ft | 436 kts | 4° |
| 2026-04-27 15:54 | 38.85634 | 15.03314 | 38140 ft | 436 kts | 4° |
| 2026-04-27 15:54 | 38.91651 | 15.04371 | 38134 ft | 436 kts | 5° |
| 2026-04-27 15:55 | 38.97673 | 15.05436 | 38133 ft | 436 kts | 5° |
| 2026-04-27 15:55 | 39.02714 | 15.06329 | 38132 ft | 436 kts | 5° |
| 2026-04-27 15:56 | 39.08737 | 15.07394 | 38139 ft | 436 kts | 5° |
| 2026-04-27 15:56 | 39.14747 | 15.08456 | 38135 ft | 436 kts | 5° |
| 2026-04-27 15:57 | 39.20721 | 15.09509 | 38133 ft | 436 kts | 5° |
| 2026-04-27 15:57 | 39.26724 | 15.10568 | 38140 ft | 435 kts | 5° |
| 2026-04-27 15:58 | 39.32737 | 15.11635 | 38139 ft | 435 kts | 5° |
| 2026-04-27 15:58 | 39.38051 | 15.12585 | 38136 ft | 435 kts | 5° |
| 2026-04-27 15:59 | 39.44042 | 15.13650 | 38131 ft | 435 kts | 5° |
| 2026-04-27 15:59 | 39.50040 | 15.14719 | 38135 ft | 434 kts | 5° |
| 2026-04-27 16:00 | 39.56037 | 15.15800 | 38131 ft | 434 kts | 5° |
| 2026-04-27 16:00 | 39.62053 | 15.16881 | 38129 ft | 434 kts | 5° |
| 2026-04-27 16:01 | 39.67984 | 15.17944 | 38134 ft | 434 kts | 5° |
| 2026-04-27 16:01 | 39.73975 | 15.19008 | 38128 ft | 434 kts | 5° |
| 2026-04-27 16:02 | 39.79960 | 15.20089 | 38127 ft | 434 kts | 5° |
| 2026-04-27 16:02 | 39.85950 | 15.21179 | 38126 ft | 434 kts | 5° |
| 2026-04-27 16:03 | 39.91941 | 15.22265 | 38137 ft | 434 kts | 5° |
| 2026-04-27 16:03 | 39.97927 | 15.23351 | 38132 ft | 434 kts | 5° |
| 2026-04-27 16:04 | 40.03916 | 15.24430 | 38130 ft | 434 kts | 5° |
| 2026-04-27 16:04 | 40.09908 | 15.25517 | 38127 ft | 434 kts | 5° |
| 2026-04-27 16:05 | 40.15885 | 15.26607 | 38129 ft | 434 kts | 4° |
| 2026-04-27 16:05 | 40.21829 | 15.27683 | 38124 ft | 433 kts | 4° |
| 2026-04-27 16:06 | 40.27799 | 15.28768 | 38129 ft | 433 kts | 5° |
| 2026-04-27 16:06 | 40.33771 | 15.29858 | 38133 ft | 433 kts | 4° |
| 2026-04-27 16:07 | 40.39749 | 15.30962 | 38125 ft | 433 kts | 5° |
| 2026-04-27 16:07 | 40.45723 | 15.32069 | 38117 ft | 433 kts | 4° |
| 2026-04-27 16:08 | 40.51698 | 15.33165 | 38112 ft | 433 kts | 4° |
| 2026-04-27 16:08 | 40.57637 | 15.34251 | 38118 ft | 433 kts | 4° |
| 2026-04-27 16:09 | 40.63604 | 15.35356 | 38121 ft | 433 kts | 4° |
| 2026-04-27 16:09 | 40.72546 | 15.37020 | 38107 ft | 432 kts | 4° |
| 2026-04-27 16:10 | 40.84467 | 15.39227 | 38110 ft | 432 kts | 4° |
| 2026-04-27 16:11 | 40.93406 | 15.40893 | 38096 ft | 432 kts | 4° |
| 2026-04-27 16:12 | 41.02332 | 15.42550 | 38106 ft | 431 kts | 4° |
| 2026-04-27 16:13 | 41.11215 | 15.44217 | 38097 ft | 431 kts | 4° |
| 2026-04-27 16:13 | 41.20127 | 15.45895 | 38107 ft | 430 kts | 4° |
| 2026-04-27 16:14 | 41.31983 | 15.48135 | 38107 ft | 429 kts | 5° |
| 2026-04-27 16:15 | 41.43795 | 15.50370 | 38109 ft | 428 kts | 5° |
| 2026-04-27 16:16 | 41.55591 | 15.52613 | 38113 ft | 427 kts | 5° |
| 2026-04-27 16:17 | 41.67326 | 15.54835 | 38105 ft | 426 kts | 5° |
| 2026-04-27 16:18 | 41.79073 | 15.57076 | 38099 ft | 425 kts | 5° |
| 2026-04-27 16:19 | 41.84931 | 15.58196 | 38105 ft | 425 kts | 5° |
| 2026-04-27 16:20 | 41.96606 | 15.60447 | 38102 ft | 425 kts | 5° |
| 2026-04-27 16:21 | 42.05393 | 15.62154 | 38095 ft | 425 kts | 5° |
| 2026-04-27 16:22 | 42.17086 | 15.64410 | 38113 ft | 424 kts | 5° |
| 2026-04-27 16:22 | 42.25858 | 15.66102 | 38097 ft | 424 kts | 5° |
| 2026-04-27 16:23 | 42.34629 | 15.67809 | 38096 ft | 424 kts | 5° |
| 2026-04-27 16:24 | 42.40464 | 15.68951 | 38102 ft | 423 kts | 5° |
| 2026-04-27 16:25 | 42.52080 | 15.71222 | 38097 ft | 423 kts | 5° |
| 2026-04-27 16:26 | 42.63756 | 15.73517 | 38099 ft | 422 kts | 6° |
| 2026-04-27 16:27 | 42.75285 | 15.76658 | 38102 ft | 424 kts | 13° |
| 2026-04-27 16:28 | 42.89457 | 15.81985 | 38096 ft | 423 kts | 13° |
| 2026-04-27 16:29 | 43.03682 | 15.87373 | 37899 ft | 422 kts | 13° |
| 2026-04-27 16:30 | 43.09310 | 15.89504 | 37355 ft | 421 kts | 13° |
| 2026-04-27 16:30 | 43.14945 | 15.91651 | 36951 ft | 417 kts | 13° |
| 2026-04-27 16:31 | 43.23252 | 15.94813 | 36697 ft | 411 kts | 13° |
| 2026-04-27 16:31 | 43.28830 | 15.96915 | 37076 ft | 419 kts | 13° |
| 2026-04-27 16:32 | 43.36362 | 15.99811 | 37086 ft | 420 kts | 13° |
| 2026-04-27 16:33 | 43.44818 | 16.03069 | 37087 ft | 420 kts | 13° |
| 2026-04-27 16:33 | 43.50422 | 16.05214 | 37082 ft | 420 kts | 13° |
| 2026-04-27 16:34 | 43.56048 | 16.07375 | 37083 ft | 419 kts | 13° |
| 2026-04-27 16:34 | 43.61658 | 16.09538 | 37078 ft | 419 kts | 13° |
| 2026-04-27 16:35 | 43.67313 | 16.11733 | 37070 ft | 419 kts | 13° |
| 2026-04-27 16:36 | 43.75708 | 16.15002 | 37080 ft | 419 kts | 13° |
| 2026-04-27 16:36 | 43.81366 | 16.17185 | 37073 ft | 419 kts | 13° |
| 2026-04-27 16:37 | 43.86980 | 16.19371 | 37081 ft | 419 kts | 13° |
| 2026-04-27 16:37 | 43.92598 | 16.21567 | 37073 ft | 419 kts | 13° |
| 2026-04-27 16:38 | 43.98207 | 16.23759 | 37077 ft | 419 kts | 13° |
| 2026-04-27 16:38 | 44.03812 | 16.25953 | 37083 ft | 418 kts | 13° |
| 2026-04-27 16:39 | 44.09415 | 16.28157 | 37083 ft | 418 kts | 13° |
| 2026-04-27 16:39 | 44.15050 | 16.30176 | 37087 ft | 416 kts | 5° |
| 2026-04-27 16:40 | 44.20799 | 16.30356 | 37089 ft | 413 kts | 358° |
| 2026-04-27 16:40 | 44.26559 | 16.30357 | 37089 ft | 413 kts | 358° |
| 2026-04-27 16:40 | 44.29435 | 16.30368 | 36263 ft | 420 kts | 358° |
| 2026-04-27 16:41 | 44.32370 | 16.30379 | 35052 ft | 423 kts | 358° |
| 2026-04-27 16:41 | 44.35310 | 16.30387 | 33981 ft | 421 kts | 359° |
| 2026-04-27 16:41 | 44.38220 | 16.30394 | 32943 ft | 415 kts | 359° |
| 2026-04-27 16:41 | 44.41087 | 16.30400 | 31984 ft | 408 kts | 358° |
| 2026-04-27 16:42 | 44.43904 | 16.30408 | 31051 ft | 402 kts | 358° |
| 2026-04-27 16:42 | 44.46682 | 16.30413 | 30149 ft | 396 kts | 358° |
| 2026-04-27 16:42 | 44.49422 | 16.30412 | 29125 ft | 390 kts | 358° |
| 2026-04-27 16:42 | 44.52154 | 16.30411 | 28125 ft | 384 kts | 358° |
| 2026-04-27 16:43 | 44.54814 | 16.30411 | 27189 ft | 379 kts | 358° |
| 2026-04-27 16:43 | 44.57437 | 16.30416 | 26299 ft | 375 kts | 359° |
| 2026-04-27 16:43 | 44.60034 | 16.30423 | 25464 ft | 371 kts | 359° |
| 2026-04-27 16:43 | 44.62599 | 16.30431 | 24666 ft | 367 kts | 359° |
| 2026-04-27 16:44 | 44.65139 | 16.30438 | 23885 ft | 363 kts | 359° |
| 2026-04-27 16:44 | 44.67652 | 16.30445 | 22987 ft | 359 kts | 358° |
| 2026-04-27 16:44 | 44.70137 | 16.30450 | 22080 ft | 355 kts | 359° |
| 2026-04-27 16:44 | 44.72593 | 16.30456 | 21181 ft | 351 kts | 359° |
| 2026-04-27 16:45 | 44.75056 | 16.30463 | 20315 ft | 347 kts | 359° |
| 2026-04-27 16:45 | 44.77468 | 16.30464 | 19468 ft | 344 kts | 359° |
| 2026-04-27 16:45 | 44.79848 | 16.30466 | 18642 ft | 341 kts | 359° |
| 2026-04-27 16:45 | 44.82209 | 16.30471 | 17749 ft | 338 kts | 359° |
| 2026-04-27 16:46 | 44.84514 | 16.30474 | 17258 ft | 325 kts | 359° |
| 2026-04-27 16:46 | 44.86741 | 16.30479 | 16871 ft | 322 kts | 358° |
| 2026-04-27 16:46 | 44.88971 | 16.30484 | 16472 ft | 319 kts | 358° |
| 2026-04-27 16:46 | 44.91219 | 16.30489 | 16073 ft | 317 kts | 358° |
| 2026-04-27 16:47 | 44.93393 | 16.30491 | 15697 ft | 315 kts | 358° |
| 2026-04-27 16:47 | 44.95607 | 16.30492 | 15299 ft | 313 kts | 358° |
| 2026-04-27 16:47 | 44.97787 | 16.30493 | 14897 ft | 312 kts | 358° |
| 2026-04-27 16:47 | 44.99935 | 16.30220 | 14525 ft | 309 kts | 346° |
| 2026-04-27 16:48 | 45.01959 | 16.29319 | 14135 ft | 306 kts | 338° |
| 2026-04-27 16:48 | 45.03969 | 16.28278 | 13739 ft | 305 kts | 338° |
| 2026-04-27 16:48 | 45.05964 | 16.27252 | 13333 ft | 304 kts | 338° |
| 2026-04-27 16:49 | 45.09631 | 16.24676 | 12949 ft | 284 kts | 321° |
| 2026-04-27 16:49 | 45.11171 | 16.23029 | 12882 ft | 272 kts | 321° |
| 2026-04-27 16:49 | 45.12665 | 16.21431 | 12819 ft | 268 kts | 321° |
| 2026-04-27 16:49 | 45.14160 | 16.19823 | 12757 ft | 270 kts | 321° |
| 2026-04-27 16:50 | 45.15658 | 16.18208 | 12692 ft | 271 kts | 321° |
| 2026-04-27 16:50 | 45.17162 | 16.16583 | 12616 ft | 271 kts | 321° |
| 2026-04-27 16:50 | 45.18657 | 16.14967 | 12360 ft | 271 kts | 321° |
| 2026-04-27 16:50 | 45.20155 | 16.13348 | 12027 ft | 270 kts | 321° |
| 2026-04-27 16:51 | 45.21649 | 16.11731 | 11694 ft | 270 kts | 321° |
| 2026-04-27 16:51 | 45.23147 | 16.10109 | 11349 ft | 270 kts | 321° |
| 2026-04-27 16:51 | 45.24642 | 16.08489 | 11019 ft | 271 kts | 321° |
| 2026-04-27 16:51 | 45.26144 | 16.06861 | 10668 ft | 271 kts | 320° |
| 2026-04-27 16:52 | 45.27641 | 16.05234 | 10326 ft | 272 kts | 320° |
| 2026-04-27 16:52 | 45.29149 | 16.03595 | 9945 ft | 274 kts | 320° |
| 2026-04-27 16:52 | 45.30645 | 16.01969 | 9550 ft | 275 kts | 321° |
| 2026-04-27 16:52 | 45.32179 | 16.00304 | 9191 ft | 274 kts | 321° |
| 2026-04-27 16:53 | 45.33696 | 15.98656 | 8841 ft | 273 kts | 321° |
| 2026-04-27 16:53 | 45.35206 | 15.97014 | 8491 ft | 273 kts | 321° |
| 2026-04-27 16:53 | 45.36714 | 15.95372 | 8143 ft | 272 kts | 321° |
| 2026-04-27 16:53 | 45.38216 | 15.93735 | 7795 ft | 272 kts | 321° |
| 2026-04-27 16:54 | 45.39717 | 15.92097 | 7447 ft | 271 kts | 321° |
| 2026-04-27 16:54 | 45.41213 | 15.90465 | 7099 ft | 271 kts | 321° |
| 2026-04-27 16:54 | 45.42710 | 15.88831 | 6740 ft | 271 kts | 321° |
| 2026-04-27 16:54 | 45.44212 | 15.87189 | 6391 ft | 271 kts | 321° |
| 2026-04-27 16:55 | 45.45707 | 15.85551 | 6036 ft | 270 kts | 321° |
| 2026-04-27 16:55 | 45.47198 | 15.83918 | 5688 ft | 270 kts | 321° |
| 2026-04-27 16:55 | 45.48682 | 15.82291 | 5333 ft | 269 kts | 321° |
| 2026-04-27 16:55 | 45.50157 | 15.80676 | 5014 ft | 267 kts | 322° |
| 2026-04-27 16:56 | 45.51609 | 15.79117 | 4907 ft | 256 kts | 326° |
| 2026-04-27 16:56 | 45.53233 | 15.78251 | 4805 ft | 247 kts | 352° |
| 2026-04-27 16:56 | 45.54911 | 15.78486 | 4688 ft | 240 kts | 18° |
| 2026-04-27 16:56 | 45.56308 | 15.79688 | 4582 ft | 232 kts | 43° |
| 2026-04-27 16:57 | 45.57401 | 15.81321 | 4466 ft | 222 kts | 46° |
| 2026-04-27 16:57 | 45.58092 | 15.82366 | 4388 ft | 216 kts | 46° |
| 2026-04-27 16:57 | 45.59114 | 15.83906 | 4282 ft | 212 kts | 46° |
| 2026-04-27 16:57 | 45.60130 | 15.85438 | 4053 ft | 212 kts | 46° |
| 2026-04-27 16:58 | 45.61143 | 15.86965 | 3788 ft | 211 kts | 47° |
| 2026-04-27 16:58 | 45.62149 | 15.88483 | 3508 ft | 210 kts | 48° |
| 2026-04-27 16:58 | 45.63157 | 15.90005 | 3227 ft | 211 kts | 49° |
| 2026-04-27 16:58 | 45.64174 | 15.91541 | 2944 ft | 209 kts | 49° |
| 2026-04-27 16:59 | 45.65170 | 15.93048 | 2670 ft | 207 kts | 49° |
| 2026-04-27 16:59 | 45.66157 | 15.94539 | 2390 ft | 206 kts | 49° |
| 2026-04-27 16:59 | 45.67138 | 15.96024 | 2118 ft | 205 kts | 49° |
| 2026-04-27 16:59 | 45.68124 | 15.97517 | 1839 ft | 204 kts | 48° |
| 2026-04-27 17:00 | 45.69687 | 15.99885 | 1415 ft | 186 kts | 49° |
| 2026-04-27 17:00 | 45.70963 | 16.01829 | 1089 ft | 168 kts | 49° |
| 2026-04-27 17:00 | 45.71608 | 16.02815 | 939 ft | 165 kts | 47° |
| 2026-04-27 17:01 | 45.72387 | 16.03994 | 639 ft | 161 kts | 47° |
| 2026-04-27 17:01 | 45.73200 | 16.05221 | 405 ft | 150 kts | 47° |
| 2026-04-27 17:01 | 45.73855 | 16.06223 | 361 ft | 113 kts | 46° |
| 2026-04-27 17:01 | 45.74228 | 16.06781 | 359 ft | 52 kts | 47° |
| 2026-04-27 17:02 | 45.74460 | 16.07138 | 366 ft | 49 kts | 44° |
| 2026-04-27 17:02 | 45.74663 | 16.07442 | 356 ft | 31 kts | 47° |
| 2026-04-27 17:02 | 45.74667 | 16.07537 | 361 ft | 7 kts | 156° |
| 2026-04-27 17:02 | 45.74606 | 16.07608 | 359 ft | 14 kts | 137° |
| 2026-04-27 17:03 | 45.74590 | 16.07629 | 354 ft | 3 kts | 137° |
| 2026-04-27 17:03 | 45.74544 | 16.07689 | 356 ft | 14 kts | 137° |
| 2026-04-27 17:03 | 45.74461 | 16.07797 | 356 ft | 18 kts | 137° |
| 2026-04-27 17:03 | 45.74375 | 16.07900 | 359 ft | 13 kts | 165° |
| 2026-04-27 17:04 | 45.74301 | 16.07826 | 357 ft | 13 kts | 226° |
| 2026-04-27 17:04 | 45.74258 | 16.07808 | 358 ft | 5 kts | 137° |
| 2026-04-27 17:04 | 45.74241 | 16.07833 | 360 ft | 2 kts | 147° |
| 2026-04-27 17:04 | 45.74223 | 16.07850 | 363 ft | 2 kts | 142° |
| 2026-04-27 17:05 | 45.74218 | 16.07857 | 362 ft | 2 kts | 136° |
| 2026-04-27 17:05 | 45.74211 | 16.07866 | 361 ft | 0 kts | 138° |
| 2026-04-27 17:05 | 45.74211 | 16.07867 | 361 ft | 0 kts | 138° |